Time;durP1;ratioP1;P1;durP2;ratioP2;P2;SDS_P1;SDS_P2;PMS_P1;PMS_P2;Temp;Humidity;BMP_temperature;BMP_pressure;BME280_temperature;BME280_humidity;BME280_pressure;Samples;Min_cycle;Max_cycle;Signal;HPM_P1;HPM_P2
2021/03/19 00:00:26;;;;;;;1.00;1.00;;;;;;;;;;5037294;28;20224;-51
2021/03/19 00:02:53;;;;;;;1.23;1.13;;;;;;;;;;5023284;28;20236;-51
2021/03/19 00:05:19;;;;;;;1.35;1.25;;;;;;;;;;5017068;28;20445;-51
2021/03/19 00:07:47;;;;;;;1.15;1.05;;;;;;;;;;5017896;28;20176;-51
2021/03/19 00:10:14;;;;;;;1.45;1.35;;;;;;;;;;5018903;28;20185;-51
2021/03/19 00:12:41;;;;;;;1.20;1.10;;;;;;;;;;5029758;28;20570;-51
2021/03/19 00:15:08;;;;;;;1.30;1.20;;;;;;;;;;5019519;28;20203;-51
2021/03/19 00:17:34;;;;;;;0.90;0.90;;;;;;;;;;5018215;28;20176;-51
2021/03/19 00:20:00;;;;;;;1.50;1.35;;;;;;;;;;5023841;28;20184;-51
2021/03/19 00:22:26;;;;;;;1.58;1.48;;;;;;;;;;5035989;28;20171;-51
2021/03/19 00:24:52;;;;;;;1.35;1.15;;;;;;;;;;5032460;28;20180;-51
2021/03/19 00:27:18;;;;;;;1.23;1.10;;;;;;;;;;5032899;28;20183;-51
2021/03/19 00:29:44;;;;;;;1.30;1.20;;;;;;;;;;5037268;28;20180;-51
2021/03/19 00:32:10;;;;;;;1.20;1.10;;;;;;;;;;5037164;28;20597;-50
2021/03/19 00:34:35;;;;;;;1.08;1.05;;;;;;;;;;5034735;28;20231;-50
2021/03/19 00:37:01;;;;;;;2.05;1.08;;;;;;;;;;5037182;28;20566;-50
2021/03/19 00:39:27;;;;;;;1.10;1.10;;;;;;;;;;5036255;28;20180;-50
2021/03/19 00:41:53;;;;;;;1.20;1.10;;;;;;;;;;5035718;28;20567;-51
2021/03/19 00:44:20;;;;;;;1.40;1.15;;;;;;;;;;5036542;28;20183;-51
2021/03/19 00:46:46;;;;;;;1.35;1.20;;;;;;;;;;5028844;28;20469;-51
2021/03/19 00:49:12;;;;;;;1.75;1.23;;;;;;;;;;5018576;28;20725;-51
2021/03/19 00:51:38;;;;;;;1.75;1.00;;;;;;;;;;5017113;28;20199;-51
2021/03/19 00:54:04;;;;;;;1.15;1.00;;;;;;;;;;5016497;28;20197;-51
2021/03/19 00:56:30;;;;;;;1.73;1.23;;;;;;;;;;5034417;28;20192;-51
2021/03/19 00:58:56;;;;;;;1.30;1.17;;;;;;;;;;5034995;28;20172;-51
2021/03/19 01:01:22;;;;;;;1.15;1.05;;;;;;;;;;5036487;28;20198;-51
2021/03/19 01:03:48;;;;;;;1.10;1.00;;;;;;;;;;5026415;28;20196;-51
2021/03/19 01:06:15;;;;;;;1.13;1.02;;;;;;;;;;5016395;28;20172;-51
2021/03/19 01:08:41;;;;;;;1.10;1.00;;;;;;;;;;5024032;28;20242;-51
2021/03/19 01:11:07;;;;;;;0.98;0.98;;;;;;;;;;5015933;28;20252;-51
2021/03/19 01:13:33;;;;;;;0.95;0.93;;;;;;;;;;5035594;28;20203;-51
2021/03/19 01:15:59;;;;;;;0.95;0.90;;;;;;;;;;5034733;28;20199;-51
2021/03/19 01:18:27;;;;;;;0.80;0.80;;;;;;;;;;5035540;28;20422;-51
2021/03/19 01:20:53;;;;;;;0.98;0.98;;;;;;;;;;5034296;28;20176;-51
2021/03/19 01:23:19;;;;;;;1.13;1.00;;;;;;;;;;5022418;28;20195;-51
2021/03/19 01:25:45;;;;;;;1.85;1.00;;;;;;;;;;5015882;28;20448;-51
2021/03/19 01:28:14;;;;;;;1.10;1.05;;;;;;;;;;5019024;28;20606;-51
2021/03/19 01:30:41;;;;;;;1.10;1.00;;;;;;;;;;5016089;28;20172;-51
2021/03/19 01:33:07;;;;;;;1.23;1.10;;;;;;;;;;5016378;28;20211;-51
2021/03/19 01:35:34;;;;;;;0.80;0.80;;;;;;;;;;5034954;28;20214;-51
2021/03/19 01:38:00;;;;;;;1.25;0.90;;;;;;;;;;5024389;28;20180;-51
2021/03/19 01:40:29;;;;;;;2.10;1.08;;;;;;;;;;5036023;28;20171;-51
2021/03/19 01:43:13;;;;;;;0.95;0.95;;;;;;;;;;5020095;28;20190;-51
2021/03/19 01:45:58;;;;;;;1.05;1.00;;;;;;;;;;5015632;28;20188;-51
2021/03/19 01:48:42;;;;;;;2.60;0.85;;;;;;;;;;5015887;28;20176;-51
2021/03/19 01:51:27;;;;;;;1.25;1.10;;;;;;;;;;5017078;28;20180;-51
2021/03/19 01:54:11;;;;;;;1.10;1.00;;;;;;;;;;5033448;28;20204;-52
2021/03/19 01:56:56;;;;;;;1.00;1.00;;;;;;;;;;5016127;28;20180;-52
2021/03/19 01:59:40;;;;;;;0.80;0.80;;;;;;;;;;5015910;28;20230;-52
2021/03/19 02:02:25;;;;;;;0.85;0.85;;;;;;;;;;5035384;28;20238;-52
2021/03/19 02:05:09;;;;;;;0.85;0.85;;;;;;;;;;5034876;28;20179;-52
2021/03/19 02:07:54;;;;;;;0.80;0.80;;;;;;;;;;5029652;28;20234;-52
2021/03/19 02:10:39;;;;;;;0.93;0.93;;;;;;;;;;5033139;28;20581;-52
2021/03/19 02:13:23;;;;;;;0.98;0.90;;;;;;;;;;5035108;28;20210;-52
2021/03/19 02:16:08;;;;;;;1.20;1.10;;;;;;;;;;5030493;28;20175;-52
2021/03/19 02:18:53;;;;;;;0.70;0.70;;;;;;;;;;5035061;28;20267;-52
2021/03/19 02:21:37;;;;;;;0.90;0.90;;;;;;;;;;5015453;28;20183;-52
2021/03/19 02:24:21;;;;;;;1.00;1.00;;;;;;;;;;5015455;28;20184;-52
2021/03/19 02:27:06;;;;;;;0.73;0.73;;;;;;;;;;5024453;28;20267;-52
2021/03/19 02:29:51;;;;;;;0.90;0.90;;;;;;;;;;5028778;28;20202;-52
2021/03/19 02:32:18;;;;;;;0.90;0.90;;;;;;;;;;5015316;28;20200;-52
2021/03/19 02:34:52;;;;;;;0.75;0.75;;;;;;;;;;5028965;28;20203;-52
2021/03/19 02:37:22;;;;;;;1.08;0.80;;;;;;;;;;5038640;28;20563;-52
2021/03/19 02:39:48;;;;;;;1.20;0.88;;;;;;;;;;5015555;28;20460;-52
2021/03/19 02:42:15;;;;;;;0.77;0.77;;;;;;;;;;5015363;28;20218;-52
2021/03/19 02:44:42;;;;;;;0.73;0.73;;;;;;;;;;5014775;28;20184;-52
2021/03/19 02:47:09;;;;;;;1.20;0.98;;;;;;;;;;5015323;28;20841;-52
2021/03/19 02:49:35;;;;;;;0.82;0.82;;;;;;;;;;5021098;28;20202;-52
2021/03/19 02:52:01;;;;;;;0.80;0.80;;;;;;;;;;5021689;28;20180;-52
2021/03/19 02:54:27;;;;;;;0.75;0.75;;;;;;;;;;5034405;28;20470;-52
2021/03/19 02:56:53;;;;;;;0.70;0.70;;;;;;;;;;5018019;28;20230;-52
2021/03/19 02:59:19;;;;;;;1.38;1.00;;;;;;;;;;5015335;28;20552;-52
2021/03/19 03:01:46;;;;;;;0.85;0.75;;;;;;;;;;5015076;28;20479;-52
2021/03/19 03:04:13;;;;;;;0.82;0.82;;;;;;;;;;5021656;28;20202;-52
2021/03/19 03:06:46;;;;;;;0.68;0.60;;;;;;;;;;5023632;28;20192;-52
2021/03/19 03:09:14;;;;;;;0.70;0.70;;;;;;;;;;5015061;28;20199;-53
2021/03/19 03:11:40;;;;;;;0.70;0.70;;;;;;;;;;5015873;28;20181;-52
2021/03/19 03:14:11;;;;;;;0.80;0.80;;;;;;;;;;5021388;28;20208;-52
2021/03/19 03:16:37;;;;;;;1.00;1.00;;;;;;;;;;5017293;28;20176;-52
2021/03/19 03:19:04;;;;;;;0.95;0.80;;;;;;;;;;5029550;28;20180;-52
2021/03/19 03:21:31;;;;;;;0.70;0.70;;;;;;;;;;5020517;28;20218;-52
2021/03/19 03:23:57;;;;;;;0.90;0.80;;;;;;;;;;5018483;28;20187;-52
2021/03/19 03:26:23;;;;;;;0.80;0.80;;;;;;;;;;5033637;28;20218;-52
2021/03/19 03:28:49;;;;;;;0.80;0.80;;;;;;;;;;5034571;28;20180;-52
2021/03/19 03:31:15;;;;;;;0.90;0.90;;;;;;;;;;5031105;28;20592;-52
2021/03/19 03:33:41;;;;;;;0.80;0.80;;;;;;;;;;5014835;28;20251;-52
2021/03/19 03:36:07;;;;;;;0.75;0.75;;;;;;;;;;5027399;28;20208;-52
2021/03/19 03:38:33;;;;;;;0.80;0.80;;;;;;;;;;5018719;28;20436;-52
2021/03/19 03:41:04;;;;;;;0.80;0.80;;;;;;;;;;5018242;28;20496;-52
2021/03/19 03:43:31;;;;;;;0.90;0.90;;;;;;;;;;5018375;28;20446;-52
2021/03/19 03:45:57;;;;;;;0.82;0.82;;;;;;;;;;5023276;28;20238;-52
2021/03/19 03:48:25;;;;;;;0.85;0.85;;;;;;;;;;5022520;28;20187;-52
2021/03/19 03:50:51;;;;;;;0.90;0.90;;;;;;;;;;5037159;28;20176;-52
2021/03/19 03:53:17;;;;;;;1.05;0.98;;;;;;;;;;5036829;28;20199;-52
2021/03/19 03:55:44;;;;;;;0.80;0.80;;;;;;;;;;5033102;28;20548;-52
2021/03/19 03:58:10;;;;;;;0.98;0.98;;;;;;;;;;5026918;28;20494;-52
2021/03/19 04:00:37;;;;;;;0.70;0.70;;;;;;;;;;5017695;28;20196;-52
2021/03/19 04:03:04;;;;;;;1.05;1.05;;;;;;;;;;5028151;28;20244;-52
2021/03/19 04:05:32;;;;;;;1.15;1.02;;;;;;;;;;5028614;28;20184;-52
2021/03/19 04:07:58;;;;;;;0.88;0.88;;;;;;;;;;5027131;28;20185;-52
2021/03/19 04:10:24;;;;;;;1.00;1.00;;;;;;;;;;5017916;28;20203;-52
2021/03/19 04:12:50;;;;;;;1.05;0.98;;;;;;;;;;5024980;28;22085;-52
2021/03/19 04:15:17;;;;;;;1.00;1.00;;;;;;;;;;5036526;28;20183;-52
2021/03/19 04:17:45;;;;;;;0.80;0.80;;;;;;;;;;5020278;28;20243;-52
2021/03/19 04:20:12;;;;;;;1.42;1.33;;;;;;;;;;5017855;28;20436;-52
2021/03/19 04:22:39;;;;;;;0.90;0.90;;;;;;;;;;5037530;28;20172;-52
2021/03/19 04:25:05;;;;;;;1.27;1.08;;;;;;;;;;5029021;28;20172;-52
2021/03/19 04:27:33;;;;;;;1.33;1.10;;;;;;;;;;5034937;28;20191;-52
2021/03/19 04:29:59;;;;;;;1.00;1.00;;;;;;;;;;5035764;28;20179;-52
2021/03/19 04:32:25;;;;;;;1.00;1.00;;;;;;;;;;5037249;28;20446;-52
2021/03/19 04:34:52;;;;;;;1.10;1.10;;;;;;;;;;5044909;28;20489;-52
2021/03/19 04:37:19;;;;;;;0.82;0.82;;;;;;;;;;5028585;28;20697;-52
2021/03/19 04:39:46;;;;;;;0.93;0.93;;;;;;;;;;5017714;28;20181;-52
2021/03/19 04:42:13;;;;;;;1.00;1.00;;;;;;;;;;5017769;28;20283;-52
2021/03/19 04:44:41;;;;;;;1.05;1.02;;;;;;;;;;5023606;28;20183;-52
2021/03/19 04:47:07;;;;;;;3.92;1.27;;;;;;;;;;5020076;28;20181;-52
2021/03/19 04:49:34;;;;;;;1.13;1.02;;;;;;;;;;5017230;28;20199;-52
2021/03/19 04:52:00;;;;;;;1.20;1.10;;;;;;;;;;5018369;28;20208;-52
2021/03/19 04:54:26;;;;;;;12.18;3.97;;;;;;;;;;5016900;28;20208;-52
2021/03/19 04:56:52;;;;;;;14.57;4.50;;;;;;;;;;5025220;28;20186;-52
2021/03/19 04:59:18;;;;;;;15.93;4.88;;;;;;;;;;5019922;28;20259;-52
2021/03/19 05:01:50;;;;;;;13.65;3.95;;;;;;;;;;5017152;28;20614;-52
2021/03/19 05:04:17;;;;;;;10.60;3.35;;;;;;;;;;5016404;28;20218;-52
2021/03/19 05:06:43;;;;;;;9.13;2.90;;;;;;;;;;5021042;28;20190;-52
2021/03/19 05:09:09;;;;;;;5.85;2.90;;;;;;;;;;5036284;28;20206;-52
2021/03/19 05:11:36;;;;;;;5.55;2.75;;;;;;;;;;5030288;28;20707;-52
2021/03/19 05:14:02;;;;;;;8.77;2.83;;;;;;;;;;5016512;28;20200;-52
2021/03/19 05:16:28;;;;;;;5.43;2.90;;;;;;;;;;5027643;28;20211;-52
2021/03/19 05:18:54;;;;;;;7.28;2.70;;;;;;;;;;5022579;28;20266;-52
2021/03/19 05:21:20;;;;;;;8.50;2.63;;;;;;;;;;5035820;28;20271;-52
2021/03/19 05:23:46;;;;;;;11.30;3.05;;;;;;;;;;5036148;28;20419;-52
2021/03/19 05:26:12;;;;;;;4.95;2.63;;;;;;;;;;5034329;28;20226;-52
2021/03/19 05:28:38;;;;;;;6.28;2.92;;;;;;;;;;5035861;28;20198;-52
2021/03/19 05:31:04;;;;;;;6.32;2.70;;;;;;;;;;5023296;28;20188;-52
2021/03/19 05:33:40;;;;;;;6.57;2.20;;;;;;;;;;5016291;28;20567;-52
2021/03/19 05:36:06;;;;;;;6.22;2.35;;;;;;;;;;5052463;28;20202;-52
2021/03/19 05:38:32;;;;;;;7.93;2.78;;;;;;;;;;5035381;28;20326;-52
2021/03/19 05:40:59;;;;;;;5.13;2.30;;;;;;;;;;5018421;28;20291;-52
2021/03/19 05:43:27;;;;;;;4.70;2.30;;;;;;;;;;5016326;28;20547;-52
2021/03/19 05:45:54;;;;;;;6.70;2.88;;;;;;;;;;5016198;28;20188;-52
2021/03/19 05:48:21;;;;;;;4.57;2.22;;;;;;;;;;5026921;28;20513;-52
2021/03/19 05:50:47;;;;;;;5.80;2.30;;;;;;;;;;5023951;28;20185;-52
2021/03/19 05:53:14;;;;;;;5.22;2.45;;;;;;;;;;5034037;28;20207;-52
2021/03/19 05:55:41;;;;;;;6.93;2.17;;;;;;;;;;5032147;28;20176;-52
2021/03/19 05:58:08;;;;;;;4.35;2.03;;;;;;;;;;5021421;28;20204;-52
2021/03/19 06:00:34;;;;;;;3.70;2.25;;;;;;;;;;5039007;28;20185;-52
2021/03/19 06:03:01;;;;;;;5.93;2.20;;;;;;;;;;5033334;28;20210;-52
2021/03/19 06:05:29;;;;;;;4.43;1.92;;;;;;;;;;5031701;28;20188;-52
2021/03/19 06:08:04;;;;;;;4.63;1.95;;;;;;;;;;5015827;28;20470;-52
2021/03/19 06:10:37;;;;;;;4.22;2.03;;;;;;;;;;5027991;28;20183;-52
2021/03/19 06:13:06;;;;;;;4.95;2.28;;;;;;;;;;5027547;28;20576;-52
2021/03/19 06:15:34;;;;;;;5.72;2.20;;;;;;;;;;5016303;28;20228;-52
2021/03/19 06:18:02;;;;;;;6.40;1.92;;;;;;;;;;5030390;28;20176;-52
2021/03/19 06:20:29;;;;;;;3.67;1.63;;;;;;;;;;5035218;28;20199;-52
2021/03/19 06:23:06;;;;;;;3.17;1.50;;;;;;;;;;5035284;28;20172;-52
2021/03/19 06:25:40;;;;;;;4.60;2.08;;;;;;;;;;5034221;28;20171;-52
2021/03/19 06:28:14;;;;;;;3.35;1.73;;;;;;;;;;5033124;28;20190;-52
2021/03/19 06:30:42;;;;;;;3.47;1.95;;;;;;;;;;5033924;28;20202;-52
2021/03/19 06:33:14;;;;;;;5.90;1.98;;;;;;;;;;5034426;28;20206;-52
2021/03/19 06:35:41;;;;;;;3.85;1.80;;;;;;;;;;5024633;28;20184;-52
2021/03/19 06:38:29;;;;;;;4.43;2.13;;;;;;;;;;5027242;28;20207;-52
2021/03/19 06:40:55;;;;;;;3.22;1.75;;;;;;;;;;5023669;28;20251;-52
2021/03/19 06:43:28;;;;;;;2.45;1.60;;;;;;;;;;5034492;28;20203;-52
2021/03/19 06:46:26;;;;;;;2.75;1.50;;;;;;;;;;5030589;28;20186;-52
2021/03/19 06:48:55;;;;;;;2.55;1.33;;;;;;;;;;4990323;28;20203;-53
2021/03/19 06:51:24;;;;;;;3.13;1.77;;;;;;;;;;5032144;28;20180;-53
2021/03/19 06:53:56;;;;;;;3.03;1.48;;;;;;;;;;5034888;28;20203;-53
2021/03/19 06:56:23;;;;;;;1.63;1.35;;;;;;;;;;5027666;28;20180;-53
2021/03/19 06:58:50;;;;;;;3.80;1.38;;;;;;;;;;5029742;28;20168;-53
2021/03/19 07:01:24;;;;;;;3.47;1.50;;;;;;;;;;5034721;28;20194;-53
2021/03/19 07:03:51;;;;;;;3.47;1.67;;;;;;;;;;5033469;28;20187;-53
2021/03/19 07:06:35;;;;;;;1.90;1.58;;;;;;;;;;5015952;28;20184;-53
2021/03/19 07:09:01;;;;;;;3.10;1.55;;;;;;;;;;5015013;28;20246;-53
2021/03/19 07:11:46;;;;;;;3.85;1.60;;;;;;;;;;5019091;28;20180;-53
2021/03/19 07:14:28;;;;;;;1.42;1.27;;;;;;;;;;5032700;28;20822;-53
2021/03/19 07:17:01;;;;;;;2.97;1.40;;;;;;;;;;5029885;28;20215;-53
2021/03/19 07:19:38;;;;;;;1.52;1.20;;;;;;;;;;5028588;28;20215;-53
2021/03/19 07:22:04;;;;;;;2.03;1.42;;;;;;;;;;5033909;28;20179;-53
2021/03/19 07:24:30;;;;;;;4.88;1.80;;;;;;;;;;5037702;28;20627;-53
2021/03/19 07:27:16;;;;;;;1.92;1.63;;;;;;;;;;5028731;28;20184;-53
2021/03/19 07:29:44;;;;;;;3.72;1.65;;;;;;;;;;5032084;28;20191;-53
2021/03/19 07:32:16;;;;;;;1.55;1.30;;;;;;;;;;5027627;28;20191;-53
2021/03/19 07:34:54;;;;;;;2.22;1.48;;;;;;;;;;5031391;28;20291;-53
2021/03/19 07:37:23;;;;;;;1.92;1.40;;;;;;;;;;5030466;28;20194;-53
2021/03/19 07:39:53;;;;;;;1.27;1.17;;;;;;;;;;5036369;28;20184;-53
2021/03/19 07:42:37;;;;;;;3.10;1.30;;;;;;;;;;5038051;28;20184;-53
2021/03/19 07:45:03;;;;;;;1.70;1.42;;;;;;;;;;5036982;28;20188;-53
2021/03/19 07:48:02;;;;;;;1.60;1.20;;;;;;;;;;5036342;28;20230;-54
2021/03/19 07:50:31;;;;;;;1.90;1.20;;;;;;;;;;4975370;28;20204;-53
2021/03/19 07:53:16;;;;;;;1.50;1.15;;;;;;;;;;5018085;28;20177;-53
2021/03/19 07:55:57;;;;;;;2.30;1.33;;;;;;;;;;5024679;28;20198;-53
2021/03/19 07:58:42;;;;;;;1.35;0.90;;;;;;;;;;5031617;28;20463;-53
2021/03/19 08:01:23;;;;;;;1.60;1.10;;;;;;;;;;5034967;28;20179;-54
2021/03/19 08:03:55;;;;;;;1.40;1.10;;;;;;;;;;5037790;28;20172;-53
2021/03/19 08:06:22;;;;;;;2.25;1.13;;;;;;;;;;5036192;28;20531;-53
2021/03/19 08:09:07;;;;;;;1.45;1.23;;;;;;;;;;5019038;28;20195;-53
2021/03/19 08:11:33;;;;;;;1.55;0.93;;;;;;;;;;5018901;28;20181;-54
2021/03/19 08:14:21;;;;;;;2.70;1.40;;;;;;;;;;5018756;28;20211;-54
2021/03/19 08:16:50;;;;;;;2.20;0.80;;;;;;;;;;5017648;28;20188;-53
2021/03/19 08:19:22;;;;;;;2.00;1.20;;;;;;;;;;5017014;28;20432;-54
2021/03/19 08:21:54;;;;;;;1.58;1.10;;;;;;;;;;5018149;28;20210;-54
2021/03/19 08:24:20;;;;;;;1.90;1.10;;;;;;;;;;5035269;28;20198;-54
2021/03/19 08:26:47;;;;;;;2.45;1.30;;;;;;;;;;5033207;28;20551;-54
2021/03/19 08:29:13;;;;;;;2.08;1.13;;;;;;;;;;5034868;28;20168;-54
2021/03/19 08:31:47;;;;;;;3.15;1.05;;;;;;;;;;5031976;28;20210;-53
2021/03/19 08:34:23;;;;;;;1.75;1.10;;;;;;;;;;5032348;28;20210;-53
2021/03/19 08:36:51;;;;;;;3.58;1.10;;;;;;;;;;5036248;28;20182;-53
2021/03/19 08:39:26;;;;;;;2.55;1.00;;;;;;;;;;5020456;28;20577;-53
2021/03/19 08:41:55;;;;;;;2.80;1.17;;;;;;;;;;5017334;28;20169;-53
2021/03/19 08:44:23;;;;;;;1.40;1.10;;;;;;;;;;5016628;28;20555;-53
2021/03/19 08:46:53;;;;;;;2.40;1.00;;;;;;;;;;5033734;28;20271;-53
2021/03/19 08:49:25;;;;;;;1.15;1.00;;;;;;;;;;5036015;28;20198;-53
2021/03/19 08:51:51;;;;;;;3.42;1.23;;;;;;;;;;5036730;28;20567;-53
2021/03/19 08:54:19;;;;;;;2.53;0.98;;;;;;;;;;5035570;28;20206;-53
2021/03/19 08:56:46;;;;;;;2.13;1.10;;;;;;;;;;5036273;28;20184;-53
2021/03/19 08:59:31;;;;;;;2.35;1.05;;;;;;;;;;5035174;28;20188;-53
2021/03/19 09:01:58;;;;;;;2.45;0.90;;;;;;;;;;5024239;28;20175;-53
2021/03/19 09:04:43;;;;;;;2.15;0.95;;;;;;;;;;5020853;28;20629;-54
2021/03/19 09:07:27;;;;;;;1.30;1.10;;;;;;;;;;5036313;28;20180;-53
2021/03/19 09:09:54;;;;;;;1.83;1.10;;;;;;;;;;5036457;28;20250;-53
2021/03/19 09:12:23;;;;;;;1.55;1.15;;;;;;;;;;5036391;28;20192;-53
2021/03/19 09:14:51;;;;;;;1.98;1.20;;;;;;;;;;5035673;28;20298;-53
2021/03/19 09:17:36;;;;;;;3.17;1.17;;;;;;;;;;5034574;28;20176;-53
2021/03/19 09:20:10;;;;;;;1.17;0.90;;;;;;;;;;5036262;28;20440;-53
2021/03/19 09:22:38;;;;;;;2.83;1.10;;;;;;;;;;5036374;28;20439;-53
2021/03/19 09:25:13;;;;;;;2.63;0.80;;;;;;;;;;5035735;28;20168;-53
2021/03/19 09:27:41;;;;;;;1.05;0.90;;;;;;;;;;5035351;28;20183;-53
2021/03/19 09:30:27;;;;;;;2.28;1.08;;;;;;;;;;5036268;28;20204;-53
2021/03/19 09:32:56;;;;;;;0.88;0.82;;;;;;;;;;5033914;28;20199;-53
2021/03/19 09:35:37;;;;;;;1.52;0.90;;;;;;;;;;5047160;28;20183;-53
2021/03/19 09:38:05;;;;;;;1.00;0.90;;;;;;;;;;5055644;28;20159;-53
2021/03/19 09:40:40;;;;;;;1.73;1.00;;;;;;;;;;5055876;28;20164;-53
2021/03/19 09:43:08;;;;;;;1.13;0.98;;;;;;;;;;5055934;28;20170;-53
2021/03/19 09:45:35;;;;;;;0.82;0.80;;;;;;;;;;5055342;28;20168;-53
2021/03/19 09:48:31;;;;;;;2.42;1.15;;;;;;;;;;5016206;28;20179;-53
2021/03/19 09:51:01;;;;;;;1.40;1.10;;;;;;;;;;5003643;28;20196;-53
2021/03/19 09:53:32;;;;;;;2.05;1.80;;;;;;;;;;5018479;28;20208;-53
2021/03/19 09:56:15;;;;;;;7.18;6.38;;;;;;;;;;5032460;28;20172;-53
2021/03/19 09:58:52;;;;;;;9.48;7.00;;;;;;;;;;5030220;28;20559;-53
2021/03/19 10:01:27;;;;;;;14.15;11.43;;;;;;;;;;5019559;28;20184;-53
2021/03/19 10:04:00;;;;;;;23.15;17.50;;;;;;;;;;5016230;28;20427;-53
2021/03/19 10:06:36;;;;;;;23.27;20.90;;;;;;;;;;5025616;28;20279;-53
2021/03/19 10:09:19;;;;;;;24.73;22.05;;;;;;;;;;5028298;28;20179;-53
2021/03/19 10:11:51;;;;;;;28.13;21.52;;;;;;;;;;5025811;28;20229;-53
2021/03/19 10:14:20;;;;;;;26.48;22.75;;;;;;;;;;5036944;28;20235;-53
2021/03/19 10:16:46;;;;;;;25.30;21.15;;;;;;;;;;5034917;28;20196;-53
2021/03/19 10:19:14;;;;;;;24.80;21.40;;;;;;;;;;5034562;28;20566;-53
2021/03/19 10:21:47;;;;;;;25.05;20.65;;;;;;;;;;5026807;28;20184;-53
2021/03/19 10:24:13;;;;;;;22.67;19.75;;;;;;;;;;5015560;28;20228;-53
2021/03/19 10:26:39;;;;;;;22.50;19.00;;;;;;;;;;5035130;28;20477;-53
2021/03/19 10:29:13;;;;;;;22.02;17.50;;;;;;;;;;5026134;28;20230;-53
2021/03/19 10:31:51;;;;;;;18.25;16.38;;;;;;;;;;5016450;28;20198;-53
2021/03/19 10:34:20;;;;;;;17.40;15.15;;;;;;;;;;5024796;28;20278;-53
2021/03/19 10:36:53;;;;;;;15.65;14.05;;;;;;;;;;5035582;28;20258;-53
2021/03/19 10:39:28;;;;;;;15.27;13.68;;;;;;;;;;5034834;28;20168;-53
2021/03/19 10:42:03;;;;;;;16.65;14.23;;;;;;;;;;5026597;28;20169;-53
2021/03/19 10:44:33;;;;;;;15.88;13.32;;;;;;;;;;5021872;28;20206;-54
2021/03/19 10:47:03;;;;;;;16.83;13.30;;;;;;;;;;5025446;28;20215;-54
2021/03/19 10:49:42;;;;;;;17.88;13.82;;;;;;;;;;5032297;28;20200;-54
2021/03/19 10:52:17;;;;;;;15.57;12.65;;;;;;;;;;5019311;28;20176;-54
2021/03/19 10:54:45;;;;;;;15.68;12.60;;;;;;;;;;5020020;28;20214;-54
2021/03/19 10:57:25;;;;;;;15.65;12.23;;;;;;;;;;5028810;28;20183;-54
2021/03/19 10:59:52;;;;;;;13.73;12.25;;;;;;;;;;5019682;28;20164;-54
2021/03/19 11:02:21;;;;;;;15.10;12.38;;;;;;;;;;5021250;28;20690;-54
2021/03/19 11:05:07;;;;;;;14.93;11.75;;;;;;;;;;5027352;28;20570;-54
2021/03/19 11:07:35;;;;;;;12.55;11.32;;;;;;;;;;5034214;28;20559;-54
2021/03/19 11:10:02;;;;;;;15.27;11.77;;;;;;;;;;5024478;28;20512;-54
2021/03/19 11:12:35;;;;;;;12.77;11.43;;;;;;;;;;5019819;28;20215;-54
2021/03/19 11:15:03;;;;;;;12.13;10.82;;;;;;;;;;5035636;28;20208;-54
2021/03/19 11:17:29;;;;;;;13.48;11.73;;;;;;;;;;5032167;28;20231;-54
2021/03/19 11:20:06;;;;;;;12.32;11.13;;;;;;;;;;5021295;28;20180;-55
2021/03/19 11:22:41;;;;;;;12.02;10.82;;;;;;;;;;5025163;28;20606;-54
2021/03/19 11:25:11;;;;;;;11.43;10.32;;;;;;;;;;5025365;28;20187;-55
2021/03/19 11:27:40;;;;;;;12.05;10.85;;;;;;;;;;5028088;28;20176;-55
2021/03/19 11:30:22;;;;;;;94.88;26.15;;;;;;;;;;5033418;28;20176;-54
2021/03/19 11:32:58;;;;;;;150.18;33.35;;;;;;;;;;5036986;28;20490;-54
2021/03/19 11:35:24;;;;;;;142.55;33.03;;;;;;;;;;5050019;28;20281;-54
2021/03/19 11:37:50;;;;;;;107.30;29.63;;;;;;;;;;5018644;28;20481;-55
2021/03/19 11:40:25;;;;;;;89.85;24.90;;;;;;;;;;5026404;28;20200;-55
2021/03/19 11:42:52;;;;;;;54.65;20.40;;;;;;;;;;5037099;28;20179;-55
2021/03/19 11:45:21;;;;;;;57.70;19.52;;;;;;;;;;5035990;28;20163;-55
2021/03/19 11:47:59;;;;;;;66.43;20.73;;;;;;;;;;5027135;28;20187;-55
2021/03/19 11:50:33;;;;;;;50.80;18.95;;;;;;;;;;5036841;28;20195;-55
2021/03/19 11:53:01;;;;;;;85.32;24.35;;;;;;;;;;5038027;28;20587;-55
2021/03/19 11:55:30;;;;;;;113.05;29.40;;;;;;;;;;5036695;28;20172;-55
2021/03/19 11:57:56;;;;;;;104.07;29.83;;;;;;;;;;5036530;28;20279;-55
2021/03/19 12:00:24;;;;;;;95.18;27.95;;;;;;;;;;5025360;28;20190;-55
2021/03/19 12:02:51;;;;;;;72.07;23.92;;;;;;;;;;5033984;28;20180;-55
2021/03/19 12:05:20;;;;;;;74.93;25.20;;;;;;;;;;5017590;28;20168;-55
2021/03/19 12:07:46;;;;;;;86.85;25.55;;;;;;;;;;5018058;28;20177;-55
2021/03/19 12:10:13;;;;;;;71.18;23.50;;;;;;;;;;5025984;28;20168;-55
2021/03/19 12:12:39;;;;;;;60.03;20.80;;;;;;;;;;5037881;28;20258;-55
2021/03/19 12:15:06;;;;;;;67.82;22.05;;;;;;;;;;5031139;28;20295;-55
2021/03/19 12:17:32;;;;;;;59.80;21.63;;;;;;;;;;5022104;28;20183;-55
2021/03/19 12:19:58;;;;;;;61.42;22.77;;;;;;;;;;5031216;28;20180;-55
2021/03/19 12:22:24;;;;;;;55.15;19.30;;;;;;;;;;5018015;28;20179;-55
2021/03/19 12:24:50;;;;;;;44.58;17.55;;;;;;;;;;5016937;28;20180;-55
2021/03/19 12:27:19;;;;;;;57.13;19.20;;;;;;;;;;5017722;28;20252;-55
2021/03/19 12:29:45;;;;;;;47.90;17.40;;;;;;;;;;5022061;28;20172;-55
2021/03/19 12:32:12;;;;;;;51.20;18.08;;;;;;;;;;5030883;28;20714;-56
2021/03/19 12:34:39;;;;;;;54.30;17.98;;;;;;;;;;5042935;28;20203;-56
2021/03/19 12:37:05;;;;;;;44.33;16.95;;;;;;;;;;5057065;28;20561;-56
2021/03/19 12:39:31;;;;;;;44.25;17.20;;;;;;;;;;5053891;28;20428;-56
2021/03/19 12:41:57;;;;;;;36.28;15.07;;;;;;;;;;5037282;28;20281;-56
2021/03/19 12:44:23;;;;;;;41.67;16.10;;;;;;;;;;5036045;28;20180;-56
2021/03/19 12:46:50;;;;;;;43.20;14.75;;;;;;;;;;5035467;28;20191;-56
2021/03/19 12:49:16;;;;;;;38.75;15.02;;;;;;;;;;5036741;28;20282;-57
2021/03/19 12:51:42;;;;;;;32.95;13.80;;;;;;;;;;5017197;28;20212;-57
2021/03/19 12:54:08;;;;;;;38.28;14.10;;;;;;;;;;5016495;28;20196;-57
2021/03/19 12:56:34;;;;;;;38.92;13.88;;;;;;;;;;5034216;28;20171;-58
2021/03/19 12:59:01;;;;;;;29.02;13.35;;;;;;;;;;5036926;28;20221;-58
2021/03/19 13:01:27;;;;;;;35.05;14.13;;;;;;;;;;5018829;28;20172;-58
2021/03/19 13:03:53;;;;;;;27.10;12.75;;;;;;;;;;5016828;28;20651;-58
2021/03/19 13:06:20;;;;;;;30.25;12.45;;;;;;;;;;5016111;28;20181;-58
2021/03/19 13:08:47;;;;;;;25.20;12.02;;;;;;;;;;5019138;28;20203;-58
2021/03/19 13:11:13;;;;;;;28.38;12.57;;;;;;;;;;5017893;28;20238;-58
2021/03/19 13:13:40;;;;;;;31.20;12.13;;;;;;;;;;5016724;28;20275;-58
2021/03/19 13:16:06;;;;;;;23.85;11.18;;;;;;;;;;5016058;28;20220;-58
2021/03/19 13:18:32;;;;;;;23.02;11.27;;;;;;;;;;5016745;28;20207;-58
2021/03/19 13:20:58;;;;;;;24.88;10.90;;;;;;;;;;5031554;28;20172;-58
2021/03/19 13:23:24;;;;;;;22.90;11.40;;;;;;;;;;5036301;28;20275;-58
2021/03/19 13:25:51;;;;;;;24.75;10.57;;;;;;;;;;5033974;28;20263;-58
2021/03/19 13:28:17;;;;;;;20.92;11.18;;;;;;;;;;5025244;28;20188;-58
2021/03/19 13:30:45;;;;;;;21.95;10.50;;;;;;;;;;5016619;28;20191;-57
2021/03/19 13:33:11;;;;;;;22.30;9.88;;;;;;;;;;5032672;28;20211;-57
2021/03/19 13:35:39;;;;;;;16.90;9.88;;;;;;;;;;5049884;28;20622;-57
2021/03/19 13:38:09;;;;;;;22.98;10.45;;;;;;;;;;5055679;28;20167;-57
2021/03/19 13:40:35;;;;;;;20.35;9.52;;;;;;;;;;5045699;28;20173;-57
2021/03/19 13:43:01;;;;;;;16.15;8.82;;;;;;;;;;5017041;28;20250;-57
2021/03/19 13:45:28;;;;;;;17.05;8.50;;;;;;;;;;5035288;28;20524;-57
2021/03/19 13:47:54;;;;;;;15.73;8.70;;;;;;;;;;5035975;28;20168;-57
2021/03/19 13:50:21;;;;;;;17.83;9.18;;;;;;;;;;5035542;28;20195;-57
2021/03/19 13:52:47;;;;;;;16.13;8.73;;;;;;;;;;5035819;28;20536;-57
2021/03/19 13:55:13;;;;;;;18.00;8.75;;;;;;;;;;5034026;28;20595;-57
2021/03/19 13:57:51;;;;;;;14.93;7.97;;;;;;;;;;5017128;28;20346;-57
2021/03/19 14:00:19;;;;;;;14.18;7.57;;;;;;;;;;5015994;28;20168;-57
2021/03/19 14:02:45;;;;;;;15.55;7.68;;;;;;;;;;5016970;28;20424;-57
2021/03/19 14:05:11;;;;;;;15.23;7.68;;;;;;;;;;5020909;28;20485;-57
2021/03/19 14:07:37;;;;;;;13.07;7.68;;;;;;;;;;5035642;28;20551;-57
2021/03/19 14:10:04;;;;;;;11.82;6.95;;;;;;;;;;5035494;28;20176;-57
2021/03/19 14:12:30;;;;;;;12.38;6.72;;;;;;;;;;5032332;28;20318;-57
2021/03/19 14:14:56;;;;;;;12.35;6.55;;;;;;;;;;5034670;28;20220;-57
2021/03/19 14:17:22;;;;;;;12.25;6.88;;;;;;;;;;5035186;28;20168;-57
2021/03/19 14:19:48;;;;;;;11.23;6.88;;;;;;;;;;5035379;28;20174;-57
2021/03/19 14:22:18;;;;;;;12.95;6.35;;;;;;;;;;5034998;28;20175;-57
2021/03/19 14:24:44;;;;;;;11.55;6.57;;;;;;;;;;5028472;28;20172;-57
2021/03/19 14:27:10;;;;;;;10.63;5.88;;;;;;;;;;5015453;28;20199;-57
2021/03/19 14:29:36;;;;;;;14.13;6.60;;;;;;;;;;5022273;28;20176;-57
2021/03/19 14:32:02;;;;;;;14.05;6.70;;;;;;;;;;5034126;28;20237;-57
2021/03/19 14:34:28;;;;;;;13.38;5.82;;;;;;;;;;5039426;28;20202;-57
2021/03/19 14:36:54;;;;;;;19.15;6.60;;;;;;;;;;5049352;28;20175;-56
2021/03/19 14:39:21;;;;;;;11.02;5.90;;;;;;;;;;5035205;28;20535;-56
2021/03/19 14:41:47;;;;;;;17.27;6.30;;;;;;;;;;5035117;28;20168;-56
2021/03/19 14:44:13;;;;;;;11.10;5.22;;;;;;;;;;5034542;28;20267;-56
2021/03/19 14:46:39;;;;;;;8.60;4.63;;;;;;;;;;5033214;28;20270;-56
2021/03/19 14:49:06;;;;;;;12.38;5.20;;;;;;;;;;5030238;28;20559;-56
2021/03/19 14:51:32;;;;;;;11.93;5.20;;;;;;;;;;5015377;28;20177;-56